sensor_id;sensor_type;location;lat;lon;timestamp;pressure;altitude;pressure_sealevel;temperature;humidity
4767;BME280;2397;53.576;9.746;2023-02-21T00:02:22;101276.94;;;7.67;100.00
4767;BME280;2397;53.576;9.746;2023-02-21T00:05:07;101274.47;;;7.70;100.00
4767;BME280;2397;53.576;9.746;2023-02-21T00:07:52;101285.59;;;7.69;100.00
4767;BME280;2397;53.576;9.746;2023-02-21T00:10:37;101282.97;;;7.67;100.00
4767;BME280;2397;53.576;9.746;2023-02-21T00:13:22;101287.31;;;7.68;100.00
4767;BME280;2397;53.576;9.746;2023-02-21T00:16:06;101285.44;;;7.64;100.00
4767;BME280;2397;53.576;9.746;2023-02-21T00:18:52;101292.28;;;7.64;100.00
4767;BME280;2397;53.576;9.746;2023-02-21T00:21:36;101295.44;;;7.55;100.00
4767;BME280;2397;53.576;9.746;2023-02-21T00:24:21;101301.50;;;7.57;100.00
4767;BME280;2397;53.576;9.746;2023-02-21T00:27:06;101294.69;;;7.59;100.00
4767;BME280;2397;53.576;9.746;2023-02-21T00:29:51;101299.75;;;7.56;100.00
4767;BME280;2397;53.576;9.746;2023-02-21T00:32:36;101300.44;;;7.52;100.00
4767;BME280;2397;53.576;9.746;2023-02-21T00:35:21;101303.03;;;7.52;100.00
4767;BME280;2397;53.576;9.746;2023-02-21T00:38:06;101304.78;;;7.53;100.00
4767;BME280;2397;53.576;9.746;2023-02-21T00:40:52;101304.69;;;7.50;100.00
4767;BME280;2397;53.576;9.746;2023-02-21T00:43:37;101309.84;;;7.50;100.00
4767;BME280;2397;53.576;9.746;2023-02-21T00:46:23;101307.22;;;7.48;100.00
4767;BME280;2397;53.576;9.746;2023-02-21T00:49:08;101307.91;;;7.44;100.00
4767;BME280;2397;53.576;9.746;2023-02-21T00:51:53;101315.75;;;7.47;100.00
4767;BME280;2397;53.576;9.746;2023-02-21T00:54:39;101316.66;;;7.48;100.00
4767;BME280;2397;53.576;9.746;2023-02-21T00:57:24;101313.13;;;7.46;100.00
4767;BME280;2397;53.576;9.746;2023-02-21T01:00:16;101313.19;;;7.47;100.00
4767;BME280;2397;53.576;9.746;2023-02-21T01:03:01;101313.22;;;7.49;100.00
4767;BME280;2397;53.576;9.746;2023-02-21T01:05:46;101317.47;;;7.47;100.00
4767;BME280;2397;53.576;9.746;2023-02-21T01:08:31;101317.41;;;7.45;100.00
4767;BME280;2397;53.576;9.746;2023-02-21T01:11:18;101309.56;;;7.42;100.00
4767;BME280;2397;53.576;9.746;2023-02-21T01:14:05;101313.22;;;7.49;100.00
4767;BME280;2397;53.576;9.746;2023-02-21T01:16:53;101310.50;;;7.44;100.00
4767;BME280;2397;53.576;9.746;2023-02-21T01:19:40;101307.75;;;7.39;100.00
4767;BME280;2397;53.576;9.746;2023-02-21T01:22:26;101308.56;;;7.38;100.00
4767;BME280;2397;53.576;9.746;2023-02-21T01:25:10;101297.56;;;7.43;100.00
4767;BME280;2397;53.576;9.746;2023-02-21T01:27:55;101308.75;;;7.43;100.00
4767;BME280;2397;53.576;9.746;2023-02-21T01:30:40;101306.84;;;7.37;100.00
4767;BME280;2397;53.576;9.746;2023-02-21T01:33:25;101310.94;;;7.32;100.00
4767;BME280;2397;53.576;9.746;2023-02-21T01:36:10;101314.47;;;7.34;100.00
4767;BME280;2397;53.576;9.746;2023-02-21T01:38:55;101320.59;;;7.38;100.00
4767;BME280;2397;53.576;9.746;2023-02-21T01:41:40;101314.56;;;7.37;100.00
4767;BME280;2397;53.576;9.746;2023-02-21T01:44:40;101315.16;;;7.30;100.00
4767;BME280;2397;53.576;9.746;2023-02-21T01:47:26;101317.75;;;7.30;100.00
4767;BME280;2397;53.576;9.746;2023-02-21T01:50:20;101314.34;;;7.31;100.00
4767;BME280;2397;53.576;9.746;2023-02-21T01:53:10;101315.97;;;7.29;100.00
4767;BME280;2397;53.576;9.746;2023-02-21T01:55:57;101315.81;;;7.25;100.00
4767;BME280;2397;53.576;9.746;2023-02-21T01:58:46;101312.47;;;7.27;100.00
4767;BME280;2397;53.576;9.746;2023-02-21T02:02:14;101308.31;;;7.31;100.00
4767;BME280;2397;53.576;9.746;2023-02-21T02:05:03;101303.06;;;7.28;100.00
4767;BME280;2397;53.576;9.746;2023-02-21T02:07:50;101316.03;;;7.31;100.00
4767;BME280;2397;53.576;9.746;2023-02-21T02:10:36;101316.69;;;7.25;100.00
4767;BME280;2397;53.576;9.746;2023-02-21T02:16:08;101318.34;;;7.23;100.00
4767;BME280;2397;53.576;9.746;2023-02-21T02:21:41;101319.41;;;7.30;100.00
4767;BME280;2397;53.576;9.746;2023-02-21T02:27:19;101321.06;;;7.28;100.00
4767;BME280;2397;53.576;9.746;2023-02-21T02:30:14;101330.63;;;7.30;100.00
4767;BME280;2397;53.576;9.746;2023-02-21T02:35:30;101323.53;;;7.25;100.00
4767;BME280;2397;53.576;9.746;2023-02-21T02:38:10;101321.84;;;7.25;100.00
4767;BME280;2397;53.576;9.746;2023-02-21T02:40:57;101320.81;;;7.20;100.00
4767;BME280;2397;53.576;9.746;2023-02-21T02:43:48;101329.50;;;7.24;100.00
4767;BME280;2397;53.576;9.746;2023-02-21T02:48:52;101327.53;;;7.16;100.00
4767;BME280;2397;53.576;9.746;2023-02-21T02:51:20;101323.22;;;7.15;100.00
4767;BME280;2397;53.576;9.746;2023-02-21T02:53:48;101325.91;;;7.18;100.00
4767;BME280;2397;53.576;9.746;2023-02-21T02:56:15;101330.25;;;7.19;100.00
4767;BME280;2397;53.576;9.746;2023-02-21T02:58:49;101329.28;;;7.17;100.00
4767;BME280;2397;53.576;9.746;2023-02-21T03:04:17;101315.44;;;7.14;100.00
4767;BME280;2397;53.576;9.746;2023-02-21T03:07:01;101321.50;;;7.16;100.00
4767;BME280;2397;53.576;9.746;2023-02-21T03:09:48;101329.13;;;7.13;100.00
4767;BME280;2397;53.576;9.746;2023-02-21T03:12:31;101328.16;;;7.09;100.00
4767;BME280;2397;53.576;9.746;2023-02-21T03:15:15;101333.50;;;7.15;100.00
4767;BME280;2397;53.576;9.746;2023-02-21T03:17:47;101335.19;;;7.15;100.00
4767;BME280;2397;53.576;9.746;2023-02-21T03:20:16;101335.19;;;7.15;100.00
4767;BME280;2397;53.576;9.746;2023-02-21T03:22:44;101337.66;;;7.12;100.00
4767;BME280;2397;53.576;9.746;2023-02-21T03:25:12;101334.16;;;7.10;100.00
4767;BME280;2397;53.576;9.746;2023-02-21T03:27:40;101339.31;;;7.10;100.00
4767;BME280;2397;53.576;9.746;2023-02-21T03:30:08;101336.69;;;7.08;100.00
4767;BME280;2397;53.576;9.746;2023-02-21T03:32:40;101335.81;;;7.08;100.00
4767;BME280;2397;53.576;9.746;2023-02-21T03:35:08;101332.28;;;7.06;100.00
4767;BME280;2397;53.576;9.746;2023-02-21T03:37:40;101341.88;;;7.10;100.00
4767;BME280;2397;53.576;9.746;2023-02-21T03:40:10;101340.00;;;7.06;100.00
4767;BME280;2397;53.576;9.746;2023-02-21T03:42:38;101341.66;;;7.03;100.00
4767;BME280;2397;53.576;9.746;2023-02-21T03:45:05;101350.19;;;7.02;100.00
4767;BME280;2397;53.576;9.746;2023-02-21T03:47:31;101346.75;;;7.02;100.00
4767;BME280;2397;53.576;9.746;2023-02-21T03:49:58;101349.31;;;7.02;100.00
4767;BME280;2397;53.576;9.746;2023-02-21T03:52:24;101348.47;;;7.03;100.00
4767;BME280;2397;53.576;9.746;2023-02-21T03:54:50;101349.38;;;7.03;100.00
4767;BME280;2397;53.576;9.746;2023-02-21T03:57:17;101349.25;;;7.00;100.00
4767;BME280;2397;53.576;9.746;2023-02-21T03:59:44;101349.22;;;6.99;100.00
4767;BME280;2397;53.576;9.746;2023-02-21T04:02:10;101346.69;;;7.00;100.00
4767;BME280;2397;53.576;9.746;2023-02-21T04:04:36;101353.34;;;6.95;100.00
4767;BME280;2397;53.576;9.746;2023-02-21T04:07:03;101355.09;;;6.96;100.00
4767;BME280;2397;53.576;9.746;2023-02-21T04:09:29;101354.16;;;6.94;100.00
4767;BME280;2397;53.576;9.746;2023-02-21T04:11:56;101353.47;;;6.98;100.00
4767;BME280;2397;53.576;9.746;2023-02-21T04:14:22;101353.41;;;6.97;100.00
4767;BME280;2397;53.576;9.746;2023-02-21T04:16:48;101353.50;;;7.00;100.00
4767;BME280;2397;53.576;9.746;2023-02-21T04:19:15;101345.50;;;6.92;100.00
4767;BME280;2397;53.576;9.746;2023-02-21T04:21:41;101346.31;;;6.91;100.00
4767;BME280;2397;53.576;9.746;2023-02-21T04:24:08;101349.72;;;6.90;100.00
4767;BME280;2397;53.576;9.746;2023-02-21T04:26:34;101345.69;;;6.97;100.00
4767;BME280;2397;53.576;9.746;2023-02-21T04:29:01;101344.75;;;6.95;100.00
4767;BME280;2397;53.576;9.746;2023-02-21T04:31:28;101351.66;;;6.96;100.00
4767;BME280;2397;53.576;9.746;2023-02-21T04:33:54;101348.31;;;6.98;100.00
4767;BME280;2397;53.576;9.746;2023-02-21T04:36:36;101350.31;;;6.83;100.00
4767;BME280;2397;53.576;9.746;2023-02-21T04:39:04;101344.09;;;6.78;100.00
4767;BME280;2397;53.576;9.746;2023-02-21T04:41:31;101353.28;;;6.71;100.00
4767;BME280;2397;53.576;9.746;2023-02-21T04:43:58;101334.03;;;6.61;100.00
4767;BME280;2397;53.576;9.746;2023-02-21T04:46:24;101340.81;;;6.59;100.00
4767;BME280;2397;53.576;9.746;2023-02-21T04:48:51;101347.72;;;6.60;100.00
4767;BME280;2397;53.576;9.746;2023-02-21T04:51:20;101343.50;;;6.62;100.00
4767;BME280;2397;53.576;9.746;2023-02-21T04:53:48;101346.09;;;6.62;100.00
4767;BME280;2397;53.576;9.746;2023-02-21T04:56:17;101340.81;;;6.59;100.00
4767;BME280;2397;53.576;9.746;2023-02-21T04:58:44;101350.31;;;6.60;100.00
4767;BME280;2397;53.576;9.746;2023-02-21T05:01:12;101343.34;;;6.58;100.00
4767;BME280;2397;53.576;9.746;2023-02-21T05:03:39;101339.00;;;6.57;100.00
4767;BME280;2397;53.576;9.746;2023-02-21T05:06:06;101354.31;;;6.54;100.00
4767;BME280;2397;53.576;9.746;2023-02-21T05:08:34;101351.63;;;6.50;100.00
4767;BME280;2397;53.576;9.746;2023-02-21T05:11:01;101350.75;;;6.50;100.00
4767;BME280;2397;53.576;9.746;2023-02-21T05:13:28;101347.47;;;6.54;100.00
4767;BME280;2397;53.576;9.746;2023-02-21T05:15:54;101355.00;;;6.49;100.00
4767;BME280;2397;53.576;9.746;2023-02-21T05:18:20;101353.28;;;6.48;100.00
4767;BME280;2397;53.576;9.746;2023-02-21T05:20:54;101354.88;;;6.46;100.00
4767;BME280;2397;53.576;9.746;2023-02-21T05:23:20;101348.81;;;6.44;100.00
4767;BME280;2397;53.576;9.746;2023-02-21T05:26:11;101362.53;;;6.45;100.00
4767;BME280;2397;53.576;9.746;2023-02-21T05:28:39;101353.13;;;6.45;100.00
4767;BME280;2397;53.576;9.746;2023-02-21T05:31:06;101352.94;;;6.41;100.00
4767;BME280;2397;53.576;9.746;2023-02-21T05:33:32;101353.72;;;6.38;100.00
4767;BME280;2397;53.576;9.746;2023-02-21T05:35:59;101358.06;;;6.41;100.00
4767;BME280;2397;53.576;9.746;2023-02-21T05:38:26;101352.00;;;6.39;100.00
4767;BME280;2397;53.576;9.746;2023-02-21T05:40:52;101355.63;;;6.44;100.00
4767;BME280;2397;53.576;9.746;2023-02-21T05:43:19;101360.72;;;6.42;100.00
4767;BME280;2397;53.576;9.746;2023-02-21T05:45:45;101365.91;;;6.44;100.00
4767;BME280;2397;53.576;9.746;2023-02-21T05:48:12;101360.59;;;6.39;100.00
4767;BME280;2397;53.576;9.746;2023-02-21T05:50:38;101365.78;;;6.41;100.00
4767;BME280;2397;53.576;9.746;2023-02-21T05:53:05;101363.16;;;6.39;100.00
4767;BME280;2397;53.576;9.746;2023-02-21T05:55:32;101371.84;;;6.41;100.00
4767;BME280;2397;53.576;9.746;2023-02-21T05:57:58;101370.19;;;6.43;100.00
4767;BME280;2397;53.576;9.746;2023-02-21T06:00:27;101366.75;;;6.43;100.00
4767;BME280;2397;53.576;9.746;2023-02-21T06:02:55;101372.63;;;6.40;100.00
4767;BME280;2397;53.576;9.746;2023-02-21T06:05:22;101385.63;;;6.43;100.00
4767;BME280;2397;53.576;9.746;2023-02-21T06:07:49;101385.63;;;6.43;100.00
4767;BME280;2397;53.576;9.746;2023-02-21T06:10:16;101376.06;;;6.41;100.00
4767;BME280;2397;53.576;9.746;2023-02-21T06:12:43;101391.78;;;6.47;100.00
4767;BME280;2397;53.576;9.746;2023-02-21T06:15:09;101387.50;;;6.47;100.00
4767;BME280;2397;53.576;9.746;2023-02-21T06:17:39;101392.59;;;6.46;100.00
4767;BME280;2397;53.576;9.746;2023-02-21T06:20:06;101389.78;;;6.40;100.00
4767;BME280;2397;53.576;9.746;2023-02-21T06:22:33;101399.34;;;6.44;100.00
4767;BME280;2397;53.576;9.746;2023-02-21T06:24:59;101392.47;;;6.43;100.00
4767;BME280;2397;53.576;9.746;2023-02-21T06:27:25;101395.78;;;6.40;100.00
4767;BME280;2397;53.576;9.746;2023-02-21T06:29:52;101395.97;;;6.45;100.00
4767;BME280;2397;53.576;9.746;2023-02-21T06:32:18;101394.97;;;6.41;100.00
4767;BME280;2397;53.576;9.746;2023-02-21T06:34:45;101399.28;;;6.42;100.00
4767;BME280;2397;53.576;9.746;2023-02-21T06:37:11;101413.78;;;6.40;100.00
4767;BME280;2397;53.576;9.746;2023-02-21T06:39:38;101411.34;;;6.43;100.00
4767;BME280;2397;53.576;9.746;2023-02-21T06:42:05;101420.88;;;6.46;100.00
4767;BME280;2397;53.576;9.746;2023-02-21T06:44:31;101427.69;;;6.45;100.00
4767;BME280;2397;53.576;9.746;2023-02-21T06:46:58;101437.19;;;6.46;100.00
4767;BME280;2397;53.576;9.746;2023-02-21T06:49:24;101440.78;;;6.50;100.00
4767;BME280;2397;53.576;9.746;2023-02-21T06:51:50;101431.28;;;6.49;100.00
4767;BME280;2397;53.576;9.746;2023-02-21T06:54:17;101437.06;;;6.43;100.00
4767;BME280;2397;53.576;9.746;2023-02-21T06:56:43;101421.88;;;6.49;100.00
4767;BME280;2397;53.576;9.746;2023-02-21T06:59:10;101421.94;;;6.51;100.00
4767;BME280;2397;53.576;9.746;2023-02-21T07:01:36;101430.50;;;6.50;100.00
4767;BME280;2397;53.576;9.746;2023-02-21T07:04:03;101428.66;;;6.47;100.00
4767;BME280;2397;53.576;9.746;2023-02-21T07:06:29;101429.47;;;6.46;100.00
4767;BME280;2397;53.576;9.746;2023-02-21T07:08:58;101429.47;;;6.46;100.00
4767;BME280;2397;53.576;9.746;2023-02-21T07:11:24;101438.06;;;6.47;100.00
4767;BME280;2397;53.576;9.746;2023-02-21T07:13:52;101437.19;;;6.46;100.00
4767;BME280;2397;53.576;9.746;2023-02-21T07:16:19;101447.59;;;6.49;100.00
4767;BME280;2397;53.576;9.746;2023-02-21T07:18:46;101452.63;;;6.46;100.00
4767;BME280;2397;53.576;9.746;2023-02-21T07:21:13;101450.34;;;6.54;100.00
4767;BME280;2397;53.576;9.746;2023-02-21T07:23:43;101455.31;;;6.49;100.00
4767;BME280;2397;53.576;9.746;2023-02-21T07:26:10;101456.41;;;6.55;100.00
4767;BME280;2397;53.576;9.746;2023-02-21T07:28:37;101456.53;;;6.58;100.00
4767;BME280;2397;53.576;9.746;2023-02-21T07:31:04;101464.28;;;6.59;100.00
4767;BME280;2397;53.576;9.746;2023-02-21T07:33:30;101456.56;;;6.59;100.00
4767;BME280;2397;53.576;9.746;2023-02-21T07:35:57;101452.38;;;6.61;100.00
4767;BME280;2397;53.576;9.746;2023-02-21T07:38:26;101456.75;;;6.64;100.00
4767;BME280;2397;53.576;9.746;2023-02-21T07:40:54;101465.53;;;6.69;100.00
4767;BME280;2397;53.576;9.746;2023-02-21T07:43:21;101467.19;;;6.67;100.00
4767;BME280;2397;53.576;9.746;2023-02-21T07:45:47;101466.25;;;6.65;100.00
4767;BME280;2397;53.576;9.746;2023-02-21T07:48:13;101471.41;;;6.65;100.00
4767;BME280;2397;53.576;9.746;2023-02-21T07:50:43;101477.53;;;6.68;100.00
4767;BME280;2397;53.576;9.746;2023-02-21T07:53:11;101475.63;;;6.64;100.00
4767;BME280;2397;53.576;9.746;2023-02-21T07:55:38;101478.22;;;6.64;100.00
4767;BME280;2397;53.576;9.746;2023-02-21T07:58:05;101487.19;;;6.74;100.00
4767;BME280;2397;53.576;9.746;2023-02-21T08:00:31;101483.09;;;6.79;100.00
4767;BME280;2397;53.576;9.746;2023-02-21T08:02:58;101489.16;;;6.80;100.00
4767;BME280;2397;53.576;9.746;2023-02-21T08:05:25;101484.13;;;6.83;100.00
4767;BME280;2397;53.576;9.746;2023-02-21T08:07:51;101485.69;;;6.79;100.00
4767;BME280;2397;53.576;9.746;2023-02-21T08:10:25;101483.38;;;6.85;100.00
4767;BME280;2397;53.576;9.746;2023-02-21T08:12:52;101492.03;;;6.88;100.00
4767;BME280;2397;53.576;9.746;2023-02-21T08:15:18;101493.03;;;6.91;100.00
4767;BME280;2397;53.576;9.746;2023-02-21T08:17:48;101499.88;;;6.91;100.00
4767;BME280;2397;53.576;9.746;2023-02-21T08:20:15;101493.78;;;6.89;100.00
4767;BME280;2397;53.576;9.746;2023-02-21T08:22:42;101495.53;;;6.90;100.00
4767;BME280;2397;53.576;9.746;2023-02-21T08:25:10;101496.44;;;6.90;100.00
4767;BME280;2397;53.576;9.746;2023-02-21T08:27:40;101493.22;;;6.96;100.00
4767;BME280;2397;53.576;9.746;2023-02-21T08:30:09;101502.81;;;7.00;100.00
4767;BME280;2397;53.576;9.746;2023-02-21T08:32:36;101513.16;;;7.01;100.00
4767;BME280;2397;53.576;9.746;2023-02-21T08:35:03;101503.72;;;7.00;100.00
4767;BME280;2397;53.576;9.746;2023-02-21T08:37:32;101508.91;;;7.02;100.00
4767;BME280;2397;53.576;9.746;2023-02-21T08:40:02;101506.34;;;7.02;100.00
4767;BME280;2397;53.576;9.746;2023-02-21T08:42:29;101513.28;;;7.04;100.00
4767;BME280;2397;53.576;9.746;2023-02-21T08:44:55;101510.03;;;7.09;100.00
4767;BME280;2397;53.576;9.746;2023-02-21T08:47:22;101509.22;;;7.10;100.00
4767;BME280;2397;53.576;9.746;2023-02-21T08:49:49;101503.16;;;7.08;100.00
4767;BME280;2397;53.576;9.746;2023-02-21T08:52:17;101509.34;;;7.13;100.00
4767;BME280;2397;53.576;9.746;2023-02-21T08:54:44;101502.53;;;7.15;100.00
4767;BME280;2397;53.576;9.746;2023-02-21T08:57:11;101508.09;;;7.24;100.00
4767;BME280;2397;53.576;9.746;2023-02-21T08:59:42;101518.44;;;7.26;100.00
4767;BME280;2397;53.576;9.746;2023-02-21T09:02:15;101520.13;;;7.25;100.00
4767;BME280;2397;53.576;9.746;2023-02-21T09:04:42;101515.09;;;7.28;100.00
4767;BME280;2397;53.576;9.746;2023-02-21T09:07:15;101511.63;;;7.28;100.00
4767;BME280;2397;53.576;9.746;2023-02-21T09:09:41;101519.53;;;7.32;100.00
4767;BME280;2397;53.576;9.746;2023-02-21T09:12:08;101520.63;;;7.37;100.00
4767;BME280;2397;53.576;9.746;2023-02-21T09:14:36;101522.63;;;7.45;100.00
4767;BME280;2397;53.576;9.746;2023-02-21T09:17:04;101523.47;;;7.45;100.00
4767;BME280;2397;53.576;9.746;2023-02-21T09:19:31;101522.56;;;7.43;100.00
4767;BME280;2397;53.576;9.746;2023-02-21T09:21:58;101523.38;;;7.42;100.00
4767;BME280;2397;53.576;9.746;2023-02-21T09:24:27;101527.50;;;7.38;100.00
4767;BME280;2397;53.576;9.746;2023-02-21T09:26:54;101524.81;;;7.35;100.00
4767;BME280;2397;53.576;9.746;2023-02-21T09:29:28;101522.75;;;7.27;100.00
4767;BME280;2397;53.576;9.746;2023-02-21T09:32:10;101528.81;;;7.27;100.00
4767;BME280;2397;53.576;9.746;2023-02-21T09:34:37;101533.31;;;7.33;100.00
4767;BME280;2397;53.576;9.746;2023-02-21T09:37:04;101534.31;;;7.36;100.00
4767;BME280;2397;53.576;9.746;2023-02-21T09:39:31;101533.38;;;7.34;100.00
4767;BME280;2397;53.576;9.746;2023-02-21T09:41:57;101536.19;;;7.41;100.00
4767;BME280;2397;53.576;9.746;2023-02-21T09:44:25;101537.94;;;7.42;100.00
4767;BME280;2397;53.576;9.746;2023-02-21T09:46:59;101541.69;;;7.50;100.00
4767;BME280;2397;53.576;9.746;2023-02-21T09:49:33;101551.38;;;7.55;100.00
4767;BME280;2397;53.576;9.746;2023-02-21T09:52:01;101541.81;;;7.53;100.00
4767;BME280;2397;53.576;9.746;2023-02-21T09:54:36;101545.34;;;7.55;100.00
4767;BME280;2397;53.576;9.746;2023-02-21T09:57:08;101542.16;;;7.62;100.00
4767;BME280;2397;53.576;9.746;2023-02-21T09:59:36;101541.47;;;7.66;100.00
4767;BME280;2397;53.576;9.746;2023-02-21T10:10:29;101540.75;;;7.70;100.00
4767;BME280;2397;53.576;9.746;2023-02-21T10:13:26;101544.38;;;7.76;100.00
4767;BME280;2397;53.576;9.746;2023-02-21T10:16:02;101547.28;;;7.83;100.00
4767;BME280;2397;53.576;9.746;2023-02-21T10:18:35;101544.75;;;7.85;100.00
4767;BME280;2397;53.576;9.746;2023-02-21T10:21:11;101546.78;;;7.94;100.00
4767;BME280;2397;53.576;9.746;2023-02-21T10:23:47;101543.38;;;7.95;100.00
4767;BME280;2397;53.576;9.746;2023-02-21T10:26:36;101552.94;;;7.97;100.00
4767;BME280;2397;53.576;9.746;2023-02-21T10:29:06;101550.56;;;8.03;100.00
4767;BME280;2397;53.576;9.746;2023-02-21T10:31:40;101562.94;;;8.12;100.00
4767;BME280;2397;53.576;9.746;2023-02-21T10:34:21;101554.53;;;8.18;100.00
4767;BME280;2397;53.576;9.746;2023-02-21T10:36:49;101560.50;;;8.17;100.00
4767;BME280;2397;53.576;9.746;2023-02-21T10:39:18;101569.16;;;8.17;100.00
4767;BME280;2397;53.576;9.746;2023-02-21T10:41:46;101569.19;;;8.19;100.00
4767;BME280;2397;53.576;9.746;2023-02-21T10:44:18;101571.00;;;8.21;100.00
4767;BME280;2397;53.576;9.746;2023-02-21T10:47:14;101576.22;;;8.23;100.00
4767;BME280;2397;53.576;9.746;2023-02-21T10:50:00;101578.91;;;8.26;100.00
4767;BME280;2397;53.576;9.746;2023-02-21T10:52:27;101576.50;;;8.31;100.00
4767;BME280;2397;53.576;9.746;2023-02-21T10:55:14;101574.47;;;8.22;100.00
4767;BME280;2397;53.576;9.746;2023-02-21T10:58:03;101576.94;;;8.19;100.00
4767;BME280;2397;53.576;9.746;2023-02-21T11:03:22;101575.13;;;8.16;100.00
4767;BME280;2397;53.576;9.746;2023-02-21T11:05:54;101580.22;;;8.15;100.00
4767;BME280;2397;53.576;9.746;2023-02-21T11:08:40;101575.13;;;8.16;100.00
4767;BME280;2397;53.576;9.746;2023-02-21T11:11:06;101577.53;;;8.12;100.00
4767;BME280;2397;53.576;9.746;2023-02-21T11:13:34;101579.16;;;8.09;100.00
4767;BME280;2397;53.576;9.746;2023-02-21T11:16:15;101572.47;;;8.15;100.00
4767;BME280;2397;53.576;9.746;2023-02-21T11:18:43;101572.44;;;8.13;100.00
4767;BME280;2397;53.576;9.746;2023-02-21T11:21:14;101579.25;;;8.13;100.00
4767;BME280;2397;53.576;9.746;2023-02-21T11:23:52;101587.16;;;8.16;100.00
4767;BME280;2397;53.576;9.746;2023-02-21T11:26:23;101574.72;;;8.05;100.00
4767;BME280;2397;53.576;9.746;2023-02-21T11:28:51;101584.91;;;8.02;100.00
4767;BME280;2397;53.576;9.746;2023-02-21T11:31:29;101578.81;;;8.00;100.00
4767;BME280;2397;53.576;9.746;2023-02-21T11:33:59;101580.41;;;7.97;100.00
4767;BME280;2397;53.576;9.746;2023-02-21T11:36:34;101572.63;;;7.95;100.00
4767;BME280;2397;53.576;9.746;2023-02-21T11:39:04;101569.31;;;7.99;100.00
4767;BME280;2397;53.576;9.746;2023-02-21T11:41:55;101574.59;;;8.02;100.00
4767;BME280;2397;53.576;9.746;2023-02-21T11:44:36;101569.31;;;7.99;100.00
4767;BME280;2397;53.576;9.746;2023-02-21T11:47:20;101569.22;;;7.96;100.00
4767;BME280;2397;53.576;9.746;2023-02-21T11:50:00;101568.44;;;7.99;100.00
4767;BME280;2397;53.576;9.746;2023-02-21T11:52:33;101563.75;;;8.11;100.00
4767;BME280;2397;53.576;9.746;2023-02-21T11:55:03;101576.47;;;8.29;100.00
4767;BME280;2397;53.576;9.746;2023-02-21T12:00:19;101575.06;;;8.39;100.00
4767;BME280;2397;53.576;9.746;2023-02-21T12:14:09;101580.81;;;8.32;100.00
4767;BME280;2397;53.576;9.746;2023-02-21T12:16:54;101579.63;;;8.22;100.00
4767;BME280;2397;53.576;9.746;2023-02-21T12:31:18;101576.06;;;7.96;100.00
4767;BME280;2397;53.576;9.746;2023-02-21T12:34:06;101584.44;;;7.90;100.00
4767;BME280;2397;53.576;9.746;2023-02-21T12:42:30;101581.81;;;7.88;100.00
4767;BME280;2397;53.576;9.746;2023-02-21T12:50:17;101585.91;;;8.06;100.00
4767;BME280;2397;53.576;9.746;2023-02-21T12:52:53;101587.31;;;7.98;100.00
4767;BME280;2397;53.576;9.746;2023-02-21T12:56:08;101576.03;;;7.94;100.00
4767;BME280;2397;53.576;9.746;2023-02-21T12:58:50;101577.72;;;7.94;100.00
4767;BME280;2397;53.576;9.746;2023-02-21T13:01:24;101581.47;;;8.02;100.00
4767;BME280;2397;53.576;9.746;2023-02-21T13:04:19;101582.03;;;7.95;100.00
4767;BME280;2397;53.576;9.746;2023-02-21T13:06:52;101579.47;;;7.95;100.00
4767;BME280;2397;53.576;9.746;2023-02-21T13:09:37;101584.69;;;7.96;100.00
4767;BME280;2397;53.576;9.746;2023-02-21T13:12:14;101573.06;;;8.07;100.00
4767;BME280;2397;53.576;9.746;2023-02-21T13:14:47;101586.41;;;8.20;100.00
4767;BME280;2397;53.576;9.746;2023-02-21T13:17:15;101573.19;;;8.35;100.00
4767;BME280;2397;53.576;9.746;2023-02-21T13:19:47;101580.56;;;8.48;100.00
4767;BME280;2397;53.576;9.746;2023-02-21T13:26:01;101576.50;;;8.31;100.00
4767;BME280;2397;53.576;9.746;2023-02-21T13:28:30;101576.66;;;8.35;100.00
4767;BME280;2397;53.576;9.746;2023-02-21T13:31:04;101575.06;;;8.39;100.00
4767;BME280;2397;53.576;9.746;2023-02-21T13:33:37;101570.31;;;8.50;100.00
4767;BME280;2397;53.576;9.746;2023-02-21T13:36:21;101567.47;;;8.43;100.00
4767;BME280;2397;53.576;9.746;2023-02-21T13:39:00;101568.28;;;8.41;100.00
4767;BME280;2397;53.576;9.746;2023-02-21T13:41:32;101572.00;;;8.25;100.00
4767;BME280;2397;53.576;9.746;2023-02-21T13:43:59;101569.84;;;8.13;100.00
4767;BME280;2397;53.576;9.746;2023-02-21T13:57:44;101571.19;;;8.03;100.00
4767;BME280;2397;53.576;9.746;2023-02-21T14:03:03;101568.22;;;7.93;100.00
4767;BME280;2397;53.576;9.746;2023-02-21T14:08:18;101565.53;;;7.89;100.00
4767;BME280;2397;53.576;9.746;2023-02-21T14:10:52;101562.00;;;7.87;100.00
4767;BME280;2397;53.576;9.746;2023-02-21T14:13:31;101561.19;;;7.88;100.00
4767;BME280;2397;53.576;9.746;2023-02-21T14:16:07;101569.50;;;7.81;100.00
4767;BME280;2397;53.576;9.746;2023-02-21T14:23:56;101568.75;;;7.84;100.00
4767;BME280;2397;53.576;9.746;2023-02-21T14:29:13;101565.25;;;7.82;100.00
4767;BME280;2397;53.576;9.746;2023-02-21T14:31:52;101561.03;;;7.84;100.00
4767;BME280;2397;53.576;9.746;2023-02-21T14:34:26;101560.00;;;7.79;100.00
4767;BME280;2397;53.576;9.746;2023-02-21T14:36:58;101558.44;;;7.84;100.00
4767;BME280;2397;53.576;9.746;2023-02-21T14:39:32;101554.28;;;7.87;100.00
4767;BME280;2397;53.576;9.746;2023-02-21T14:42:10;101560.44;;;7.91;100.00
4767;BME280;2397;53.576;9.746;2023-02-21T14:50:41;101548.69;;;7.99;100.00
4767;BME280;2397;53.576;9.746;2023-02-21T14:53:46;101563.25;;;7.97;100.00
4767;BME280;2397;53.576;9.746;2023-02-21T15:02:35;101559.25;;;8.05;100.00
4767;BME280;2397;53.576;9.746;2023-02-21T15:05:20;101564.22;;;8.01;100.00
4767;BME280;2397;53.576;9.746;2023-02-21T15:10:23;101557.28;;;7.98;100.00
4767;BME280;2397;53.576;9.746;2023-02-21T15:12:53;101564.78;;;7.92;100.00
4767;BME280;2397;53.576;9.746;2023-02-21T15:15:25;101568.94;;;7.88;100.00
4767;BME280;2397;53.576;9.746;2023-02-21T15:18:04;101561.13;;;7.87;100.00
4767;BME280;2397;53.576;9.746;2023-02-21T15:20:39;101562.91;;;7.88;100.00
4767;BME280;2397;53.576;9.746;2023-02-21T15:23:15;101573.50;;;7.96;100.00
4767;BME280;2397;53.576;9.746;2023-02-21T15:25:43;101563.13;;;7.94;100.00
4767;BME280;2397;53.576;9.746;2023-02-21T15:28:24;101567.47;;;7.95;100.00
4767;BME280;2397;53.576;9.746;2023-02-21T15:31:00;101567.38;;;7.92;100.00
4767;BME280;2397;53.576;9.746;2023-02-21T15:33:32;101570.63;;;7.88;100.00